createdAt,value
2022-12-29T00:00:08.412Z,8.20
2022-12-29T00:02:35.819Z,7.90
2022-12-29T00:05:03.635Z,6.47
2022-12-29T00:07:30.766Z,7.37
2022-12-29T00:09:57.959Z,7.40
2022-12-29T00:12:25.095Z,6.53
2022-12-29T00:15:11.089Z,8.13
2022-12-29T00:17:38.211Z,6.53
2022-12-29T00:20:24.559Z,6.50
2022-12-29T00:23:10.500Z,7.07
2022-12-29T00:25:56.568Z,7.43
2022-12-29T00:28:42.471Z,6.07
2022-12-29T00:31:31.818Z,7.13
2022-12-29T00:34:18.189Z,6.40
2022-12-29T00:36:45.812Z,6.87
2022-12-29T00:39:37.305Z,6.67
2022-12-29T00:42:26.664Z,7.03
2022-12-29T00:44:54.083Z,5.93
2022-12-29T00:47:21.246Z,8.83
2022-12-29T00:49:48.507Z,5.23
2022-12-29T00:52:15.823Z,5.40
2022-12-29T00:54:45.923Z,4.70
2022-12-29T00:57:13.497Z,5.50
2022-12-29T00:59:41.416Z,4.60
2022-12-29T01:02:08.900Z,6.27
2022-12-29T01:04:36.582Z,5.83
2022-12-29T01:07:03.783Z,5.63
2022-12-29T01:09:49.719Z,5.80
2022-12-29T01:12:16.864Z,6.50
2022-12-29T01:14:45.463Z,4.63
2022-12-29T01:17:12.778Z,5.40
2022-12-29T01:19:39.957Z,6.90
2022-12-29T01:22:07.194Z,6.10
2022-12-29T01:24:34.480Z,8.13
2022-12-29T01:27:01.607Z,7.57
2022-12-29T01:29:28.755Z,8.57
2022-12-29T01:31:55.940Z,9.53
2022-12-29T01:34:23.370Z,8.87
2022-12-29T01:36:50.578Z,10.40
2022-12-29T01:39:18.579Z,11.03
2022-12-29T01:41:45.731Z,10.60
2022-12-29T01:44:31.853Z,12.33
2022-12-29T01:46:59.048Z,10.03
2022-12-29T01:49:28.744Z,10.73
2022-12-29T01:51:58.028Z,9.57
2022-12-29T01:54:31.109Z,11.17
2022-12-29T01:57:00.918Z,8.63
2022-12-29T01:59:29.984Z,9.17
2022-12-29T02:01:57.432Z,9.30
2022-12-29T02:04:26.605Z,9.00
2022-12-29T02:06:57.348Z,9.23
2022-12-29T02:09:25.148Z,7.57
2022-12-29T02:11:52.825Z,6.97
2022-12-29T02:14:20.103Z,7.53
2022-12-29T02:16:53.320Z,8.43
2022-12-29T02:19:23.221Z,9.53
2022-12-29T02:21:53.187Z,7.17
2022-12-29T02:24:23.546Z,7.83
2022-12-29T02:27:09.245Z,7.63
2022-12-29T02:29:56.762Z,7.57
2022-12-29T02:32:32.754Z,6.73
2022-12-29T02:34:59.891Z,8.83
2022-12-29T02:37:30.616Z,8.67
2022-12-29T02:40:00.893Z,6.47
2022-12-29T02:42:37.023Z,9.67
2022-12-29T02:45:07.267Z,6.03
2022-12-29T02:47:53.305Z,5.27
2022-12-29T02:50:40.933Z,4.93
2022-12-29T02:53:38.982Z,6.03
2022-12-29T02:56:06.361Z,4.83
2022-12-29T02:58:33.490Z,4.23
2022-12-29T03:01:12.464Z,4.60
2022-12-29T03:03:58.547Z,4.80
2022-12-29T03:06:43.592Z,4.53
2022-12-29T03:09:22.627Z,3.77
2022-12-29T03:12:16.229Z,3.03
2022-12-29T03:15:09.392Z,2.67
2022-12-29T03:17:39.290Z,3.17
2022-12-29T03:20:09.272Z,2.87
2022-12-29T03:22:38.543Z,2.97
2022-12-29T03:25:05.888Z,2.97
2022-12-29T03:27:36.120Z,3.17
2022-12-29T03:30:04.920Z,4.13
2022-12-29T03:32:37.183Z,2.43
2022-12-29T03:35:05.082Z,3.77
2022-12-29T03:37:43.290Z,3.83
2022-12-29T03:40:10.876Z,2.00
2022-12-29T03:42:38.813Z,3.10
2022-12-29T03:45:06.403Z,1.60
2022-12-29T03:47:33.694Z,1.00
2022-12-29T03:50:01.201Z,2.37
2022-12-29T03:52:28.449Z,2.07
2022-12-29T03:54:55.583Z,1.80
2022-12-29T03:57:22.738Z,1.47
2022-12-29T03:59:50.080Z,2.43
2022-12-29T04:02:17.638Z,0.73
2022-12-29T04:04:45.672Z,1.00
2022-12-29T04:07:12.927Z,1.53
2022-12-29T04:09:40.068Z,0.70
2022-12-29T04:12:07.261Z,0.70
2022-12-29T04:14:34.558Z,1.03
2022-12-29T04:17:01.764Z,1.17
2022-12-29T04:19:28.872Z,1.37
2022-12-29T04:21:56.082Z,0.63
2022-12-29T04:24:23.286Z,0.50
2022-12-29T04:26:50.432Z,1.43
2022-12-29T04:29:17.587Z,0.87
2022-12-29T04:31:44.893Z,0.53
2022-12-29T04:34:12.219Z,0.70
2022-12-29T04:36:40.611Z,0.90
2022-12-29T04:39:08.374Z,2.10
2022-12-29T04:41:35.688Z,2.03
2022-12-29T04:44:02.891Z,4.63
2022-12-29T04:46:30.134Z,3.93
2022-12-29T04:48:57.427Z,5.40
2022-12-29T04:51:24.584Z,6.73
2022-12-29T04:53:51.741Z,6.97
2022-12-29T04:56:18.941Z,8.33
2022-12-29T04:58:46.285Z,6.17
2022-12-29T05:01:13.543Z,8.87
2022-12-29T05:03:41.388Z,6.70
2022-12-29T05:06:09.046Z,9.23
2022-12-29T05:08:36.197Z,15.47
2022-12-29T05:11:03.327Z,12.67
2022-12-29T05:13:30.490Z,16.67
2022-12-29T05:15:57.700Z,16.87
2022-12-29T05:18:24.989Z,20.87
2022-12-29T05:20:52.396Z,11.73
2022-12-29T05:23:19.609Z,11.20
2022-12-29T05:25:46.751Z,13.77
2022-12-29T05:28:14.291Z,12.33
2022-12-29T05:30:41.736Z,9.60
2022-12-29T05:33:12.432Z,8.53
2022-12-29T05:35:39.618Z,9.07
2022-12-29T05:38:06.819Z,5.73
2022-12-29T05:40:34.801Z,6.57
2022-12-29T05:43:01.944Z,8.50
2022-12-29T05:45:29.085Z,9.23
2022-12-29T05:47:56.370Z,14.43
2022-12-29T05:50:23.549Z,9.33
2022-12-29T05:52:50.739Z,16.53
2022-12-29T05:55:17.888Z,16.77
2022-12-29T05:57:45.933Z,13.70
2022-12-29T06:00:13.406Z,17.27
2022-12-29T06:02:40.658Z,10.10
2022-12-29T06:05:08.077Z,15.33
2022-12-29T06:07:35.291Z,16.27
2022-12-29T06:10:02.468Z,15.93
2022-12-29T06:12:29.676Z,21.33
2022-12-29T06:14:56.953Z,25.47
2022-12-29T06:17:24.091Z,28.07
2022-12-29T06:19:51.285Z,21.40
2022-12-29T06:22:18.475Z,28.23
2022-12-29T06:24:45.715Z,23.00
2022-12-29T06:27:12.977Z,25.63
2022-12-29T06:29:41.781Z,21.80
2022-12-29T06:32:09.008Z,17.90
2022-12-29T06:34:36.233Z,20.97
2022-12-29T06:37:03.556Z,23.03
2022-12-29T06:39:30.700Z,19.67
2022-12-29T06:41:57.880Z,18.87
2022-12-29T06:44:25.215Z,18.30
2022-12-29T06:46:52.357Z,16.53
2022-12-29T06:49:19.520Z,12.50
2022-12-29T06:51:46.710Z,10.03
2022-12-29T06:54:13.915Z,8.33
2022-12-29T06:56:41.389Z,9.37
2022-12-29T06:59:08.605Z,9.00
2022-12-29T07:01:37.019Z,8.53
2022-12-29T07:04:04.890Z,10.40
2022-12-29T07:06:32.046Z,9.10
2022-12-29T07:08:59.305Z,10.03
2022-12-29T07:11:26.534Z,8.20
2022-12-29T07:13:53.735Z,9.70
2022-12-29T07:16:21.281Z,8.27
2022-12-29T07:18:48.600Z,10.37
2022-12-29T07:21:15.871Z,11.33
2022-12-29T07:23:43.291Z,10.47
2022-12-29T07:26:13.072Z,11.10
2022-12-29T07:28:40.299Z,32.40
2022-12-29T07:31:08.091Z,27.90
2022-12-29T07:33:35.540Z,27.50
2022-12-29T07:36:02.695Z,28.93
2022-12-29T07:38:30.140Z,42.03
2022-12-29T07:41:00.594Z,35.57
2022-12-29T07:43:27.800Z,19.73
2022-12-29T07:45:55.184Z,16.17
2022-12-29T07:48:22.650Z,23.40
2022-12-29T07:50:49.890Z,15.33
2022-12-29T07:53:17.049Z,14.20
2022-12-29T07:55:44.184Z,15.40
2022-12-29T07:58:11.364Z,15.37
2022-12-29T08:00:39.566Z,18.87
2022-12-29T08:03:06.772Z,13.57
2022-12-29T08:05:34.184Z,19.03
2022-12-29T08:08:01.393Z,17.63
2022-12-29T08:10:28.597Z,20.80
2022-12-29T08:12:55.725Z,26.33
2022-12-29T08:15:28.574Z,22.20
2022-12-29T08:17:59.435Z,19.27
2022-12-29T08:20:26.722Z,18.43
2022-12-29T08:22:53.885Z,22.40
2022-12-29T08:25:21.033Z,20.03
2022-12-29T08:27:48.361Z,21.17
2022-12-29T08:30:15.639Z,17.27
2022-12-29T08:32:42.840Z,19.23
2022-12-29T08:35:10.255Z,18.97
2022-12-29T08:37:37.574Z,16.93
2022-12-29T08:40:05.055Z,17.83
2022-12-29T08:42:32.699Z,17.03
2022-12-29T08:45:00.435Z,17.73
2022-12-29T08:47:28.132Z,20.13
2022-12-29T08:49:55.317Z,16.20
2022-12-29T08:52:22.454Z,22.87
2022-12-29T08:54:49.599Z,18.63
2022-12-29T08:57:16.738Z,19.17
2022-12-29T08:59:43.927Z,20.37
2022-12-29T09:02:17.555Z,24.30
2022-12-29T09:04:49.480Z,18.77
2022-12-29T09:07:16.685Z,22.00
2022-12-29T09:09:43.822Z,21.40
2022-12-29T09:12:11.131Z,24.50
2022-12-29T09:14:38.307Z,24.93
2022-12-29T09:17:24.241Z,25.13
2022-12-29T09:19:51.590Z,22.80
2022-12-29T09:22:18.803Z,26.43
2022-12-29T09:24:46.146Z,24.93
2022-12-29T09:27:13.329Z,24.13
2022-12-29T09:29:40.475Z,26.03
2022-12-29T09:32:10.584Z,25.90
2022-12-29T09:34:39.831Z,24.13
2022-12-29T09:37:06.985Z,24.23
2022-12-29T09:39:34.162Z,23.30
2022-12-29T09:42:07.481Z,22.87
2022-12-29T09:44:46.957Z,19.80
2022-12-29T09:47:16.128Z,19.13
2022-12-29T09:49:55.538Z,22.40
2022-12-29T09:52:26.844Z,20.17
2022-12-29T09:55:14.137Z,18.00
2022-12-29T09:58:01.016Z,16.03
2022-12-29T10:00:51.218Z,18.63
2022-12-29T10:03:22.665Z,20.13
2022-12-29T10:05:52.465Z,21.40
2022-12-29T10:08:19.578Z,23.13
2022-12-29T10:10:52.408Z,23.83
2022-12-29T10:13:19.593Z,22.83
2022-12-29T10:16:04.228Z,24.17
2022-12-29T10:18:42.258Z,25.80
2022-12-29T10:21:18.859Z,23.50
2022-12-29T10:23:55.501Z,22.97
2022-12-29T10:26:28.932Z,20.70
2022-12-29T10:29:06.572Z,22.07
2022-12-29T10:32:00.347Z,25.37
2022-12-29T10:34:29.340Z,27.63
2022-12-29T10:37:00.573Z,17.53
2022-12-29T10:39:27.777Z,22.63
2022-12-29T10:42:03.688Z,18.43
2022-12-29T10:44:32.472Z,13.73
2022-12-29T10:47:02.219Z,17.70
2022-12-29T10:49:30.316Z,20.83
2022-12-29T10:51:59.522Z,20.80
2022-12-29T10:54:34.108Z,20.93
2022-12-29T10:57:04.572Z,16.33
2022-12-29T10:59:33.283Z,19.37
2022-12-29T11:02:06.830Z,18.80
2022-12-29T11:04:37.312Z,17.73
2022-12-29T11:07:05.046Z,17.10
2022-12-29T11:09:42.422Z,17.37
2022-12-29T11:12:30.619Z,21.23
2022-12-29T11:15:10.040Z,20.03
2022-12-29T11:17:53.978Z,14.93
2022-12-29T11:20:21.147Z,19.10
2022-12-29T11:22:48.380Z,22.90
2022-12-29T11:25:15.592Z,24.77
2022-12-29T11:27:56.271Z,20.97
2022-12-29T11:30:24.554Z,18.90
2022-12-29T11:32:53.396Z,18.77
2022-12-29T11:35:31.915Z,19.87
2022-12-29T11:37:59.780Z,23.67
2022-12-29T11:40:27.225Z,17.60
2022-12-29T11:42:56.653Z,23.53
2022-12-29T11:45:26.110Z,18.27
2022-12-29T11:48:16.248Z,16.77
2022-12-29T11:50:44.670Z,22.37
2022-12-29T11:53:22.187Z,24.27
2022-12-29T11:55:53.999Z,20.50
2022-12-29T11:58:21.199Z,24.30
2022-12-29T12:00:51.069Z,21.83
2022-12-29T12:03:22.848Z,21.90
2022-12-29T12:05:57.411Z,20.90
2022-12-29T12:08:24.582Z,17.53
2022-12-29T12:10:57.981Z,20.37
2022-12-29T12:13:43.998Z,20.73
2022-12-29T12:16:13.288Z,22.10
2022-12-29T12:18:47.491Z,21.73
2022-12-29T12:21:22.701Z,21.93
2022-12-29T12:23:49.822Z,22.57
2022-12-29T12:26:30.702Z,26.33
2022-12-29T12:29:01.203Z,20.00
2022-12-29T12:31:44.979Z,15.20
2022-12-29T12:34:25.562Z,20.47
2022-12-29T12:37:01.921Z,18.13
2022-12-29T12:39:36.425Z,27.20
2022-12-29T12:42:03.603Z,18.50
2022-12-29T12:44:40.156Z,24.80
2022-12-29T12:47:26.173Z,21.97
2022-12-29T12:49:59.419Z,27.17
2022-12-29T12:52:35.422Z,28.30
2022-12-29T12:55:07.403Z,22.23
2022-12-29T12:57:43.851Z,23.47
2022-12-29T13:00:21.159Z,28.07
2022-12-29T13:02:59.055Z,23.33
2022-12-29T13:05:29.444Z,24.20
2022-12-29T13:08:20.168Z,19.43
2022-12-29T13:10:53.779Z,22.67
2022-12-29T13:13:24.718Z,23.33
2022-12-29T13:16:14.288Z,27.67
2022-12-29T13:18:51.919Z,25.43
2022-12-29T13:21:37.929Z,21.50
2022-12-29T13:24:21.141Z,25.80
2022-12-29T13:27:03.817Z,22.97
2022-12-29T13:29:42.549Z,21.03
2022-12-29T13:32:12.656Z,21.50
2022-12-29T13:34:49.138Z,22.70
2022-12-29T13:37:22.142Z,21.93
2022-12-29T13:39:54.185Z,25.10
2022-12-29T13:42:21.625Z,19.37
2022-12-29T13:44:53.236Z,20.80
2022-12-29T13:47:29.631Z,25.30
2022-12-29T13:49:57.931Z,17.33
2022-12-29T13:52:37.461Z,20.53
2022-12-29T13:55:22.852Z,17.53
2022-12-29T13:57:53.107Z,20.43
2022-12-29T14:00:21.616Z,23.43
2022-12-29T14:02:48.927Z,24.10
2022-12-29T14:05:22.424Z,22.10
2022-12-29T14:07:50.867Z,20.17
2022-12-29T14:10:41.383Z,26.77
2022-12-29T14:13:14.731Z,19.97
2022-12-29T14:15:43.714Z,22.30
2022-12-29T14:18:21.315Z,31.77
2022-12-29T14:20:51.865Z,20.07
2022-12-29T14:23:38.815Z,23.23
2022-12-29T14:26:06.019Z,22.70
2022-12-29T14:28:36.021Z,25.67
2022-12-29T14:31:04.647Z,29.85
2022-12-29T14:33:33.130Z,23.07
2022-12-29T14:36:18.984Z,29.03
2022-12-29T14:38:47.075Z,30.83
2022-12-29T14:41:20.893Z,30.53
2022-12-29T14:44:14.744Z,27.30
2022-12-29T14:46:44.987Z,20.23
2022-12-29T14:49:17.394Z,35.43
2022-12-29T14:51:44.539Z,26.33
2022-12-29T14:54:30.317Z,26.67
2022-12-29T14:57:00.039Z,24.80
2022-12-29T14:59:28.048Z,21.67
2022-12-29T15:01:56.020Z,19.73
2022-12-29T15:04:26.924Z,24.70
2022-12-29T15:06:54.772Z,17.53
2022-12-29T15:09:37.215Z,16.13
2022-12-29T15:12:19.341Z,18.60
2022-12-29T15:14:53.707Z,18.47
2022-12-29T15:17:39.596Z,21.60
2022-12-29T15:20:19.347Z,17.90
2022-12-29T15:22:46.911Z,18.50
2022-12-29T15:25:16.613Z,17.47
2022-12-29T15:27:44.139Z,20.00
2022-12-29T15:30:18.091Z,15.17
2022-12-29T15:32:46.867Z,17.00
2022-12-29T15:35:24.362Z,13.97
2022-12-29T15:37:51.610Z,12.03
2022-12-29T15:40:26.908Z,15.50
2022-12-29T15:43:12.408Z,13.33
2022-12-29T15:45:39.694Z,12.67
2022-12-29T15:48:08.984Z,15.03
2022-12-29T15:50:38.179Z,14.97
2022-12-29T15:53:11.997Z,13.23
2022-12-29T15:55:41.151Z,12.40
2022-12-29T15:58:20.474Z,21.87
2022-12-29T16:00:55.356Z,17.63
2022-12-29T16:03:23.139Z,12.83
2022-12-29T16:05:58.113Z,18.87
2022-12-29T16:08:32.127Z,15.03
2022-12-29T16:10:59.337Z,19.13
2022-12-29T16:13:28.530Z,19.10
2022-12-29T16:15:58.403Z,15.33
2022-12-29T16:18:28.058Z,23.03
2022-12-29T16:20:55.809Z,18.43
2022-12-29T16:23:27.858Z,20.70
2022-12-29T16:25:56.390Z,15.53
2022-12-29T16:28:24.842Z,19.57
2022-12-29T16:31:05.788Z,16.60
2022-12-29T16:33:39.368Z,15.63
2022-12-29T16:36:25.444Z,22.33
2022-12-29T16:38:53.054Z,19.93
2022-12-29T16:41:33.216Z,22.90
2022-12-29T16:44:14.395Z,16.00
2022-12-29T16:46:46.097Z,21.70
2022-12-29T16:49:21.110Z,21.40
2022-12-29T16:51:48.318Z,14.00
2022-12-29T16:54:21.477Z,20.43
2022-12-29T16:56:49.520Z,21.37
2022-12-29T16:59:25.918Z,24.33
2022-12-29T17:01:53.342Z,24.83
2022-12-29T17:04:20.727Z,12.20
2022-12-29T17:06:48.192Z,21.07
2022-12-29T17:09:35.865Z,16.43
2022-12-29T17:12:10.675Z,15.43
2022-12-29T17:14:46.679Z,17.20
2022-12-29T17:17:20.032Z,13.13
2022-12-29T17:19:52.209Z,19.97
2022-12-29T17:22:21.836Z,18.97
2022-12-29T17:24:49.095Z,17.47
2022-12-29T17:27:36.544Z,17.23
2022-12-29T17:30:06.513Z,16.50
2022-12-29T17:32:33.948Z,17.63
2022-12-29T17:35:01.166Z,21.40
2022-12-29T17:37:34.561Z,21.83
2022-12-29T17:40:01.971Z,17.40
2022-12-29T17:42:29.137Z,17.33
2022-12-29T17:44:56.480Z,18.40
2022-12-29T17:47:23.747Z,21.20
2022-12-29T17:49:51.022Z,19.23
2022-12-29T17:52:18.349Z,18.63
2022-12-29T17:54:50.978Z,15.57
2022-12-29T17:57:18.778Z,15.40
2022-12-29T17:59:45.931Z,19.90
2022-12-29T18:02:25.417Z,20.17
2022-12-29T18:04:52.825Z,21.07
2022-12-29T18:07:21.392Z,19.43
2022-12-29T18:09:48.659Z,16.20
2022-12-29T18:12:51.210Z,13.30
2022-12-29T18:15:21.920Z,22.47
2022-12-29T18:17:49.143Z,19.63
2022-12-29T18:20:17.822Z,20.00
2022-12-29T18:22:45.041Z,20.37
2022-12-29T18:25:26.567Z,15.97
2022-12-29T18:27:53.795Z,16.17
2022-12-29T18:30:20.978Z,13.10
2022-12-29T18:32:48.236Z,15.43
2022-12-29T18:35:20.731Z,18.40
2022-12-29T18:37:47.867Z,14.50
2022-12-29T18:40:15.192Z,19.47
2022-12-29T18:42:42.432Z,19.40
2022-12-29T18:45:20.085Z,20.80
2022-12-29T18:47:47.399Z,13.30
2022-12-29T18:50:15.044Z,17.17
2022-12-29T18:52:42.402Z,18.40
2022-12-29T18:55:20.106Z,13.17
2022-12-29T18:57:47.472Z,17.83
2022-12-29T19:00:16.687Z,19.60
2022-12-29T19:02:44.547Z,16.47
2022-12-29T19:05:17.977Z,19.13
2022-12-29T19:07:45.149Z,16.73
2022-12-29T19:10:12.287Z,21.07
2022-12-29T19:12:39.430Z,19.90
2022-12-29T19:15:07.342Z,19.27
2022-12-29T19:17:34.816Z,18.13
2022-12-29T19:20:02.500Z,18.43
2022-12-29T19:22:29.787Z,15.47
2022-12-29T19:25:00.115Z,16.80
2022-12-29T19:27:27.657Z,16.33
2022-12-29T19:29:54.858Z,13.03
2022-12-29T19:32:22.021Z,16.33
2022-12-29T19:34:49.174Z,16.13
2022-12-29T19:37:16.414Z,15.20
2022-12-29T19:39:43.613Z,15.87
2022-12-29T19:42:10.774Z,10.73
2022-12-29T19:44:38.121Z,12.13
2022-12-29T19:47:05.309Z,13.40
2022-12-29T19:49:32.552Z,11.10
2022-12-29T19:51:59.856Z,13.43
2022-12-29T19:54:26.984Z,16.93
2022-12-29T19:56:54.124Z,12.33
2022-12-29T19:59:21.990Z,11.17
2022-12-29T20:01:49.328Z,14.27
2022-12-29T20:04:16.608Z,11.90
2022-12-29T20:06:43.876Z,11.83
2022-12-29T20:09:11.050Z,11.10
2022-12-29T20:11:38.484Z,13.40
2022-12-29T20:14:05.655Z,10.07
2022-12-29T20:16:32.868Z,11.93
2022-12-29T20:19:00.106Z,12.67
2022-12-29T20:21:27.267Z,8.10
2022-12-29T20:23:54.734Z,12.87
2022-12-29T20:26:23.991Z,10.53
2022-12-29T20:28:52.096Z,18.63
2022-12-29T20:31:20.908Z,13.50
2022-12-29T20:33:48.232Z,13.13
2022-12-29T20:36:17.709Z,17.97
2022-12-29T20:38:45.388Z,12.20
2022-12-29T20:41:13.677Z,15.10
2022-12-29T20:43:41.140Z,14.57
2022-12-29T20:46:08.352Z,13.23
2022-12-29T20:48:35.733Z,12.77
2022-12-29T20:51:03.005Z,12.13
2022-12-29T20:53:31.280Z,12.43
2022-12-29T20:56:02.709Z,13.13
2022-12-29T20:58:30.698Z,9.23
2022-12-29T21:01:01.278Z,6.53
2022-12-29T21:03:28.719Z,9.80
2022-12-29T21:05:56.206Z,8.73
2022-12-29T21:08:24.145Z,11.60
2022-12-29T21:10:51.828Z,11.00
2022-12-29T21:13:19.120Z,10.13
2022-12-29T21:15:46.868Z,12.43
2022-12-29T21:18:14.040Z,12.73
2022-12-29T21:20:41.461Z,12.17
2022-12-29T21:23:09.692Z,14.03
2022-12-29T21:25:37.337Z,14.37
2022-12-29T21:28:08.390Z,15.33
2022-12-29T21:30:35.922Z,15.53
2022-12-29T21:33:03.335Z,14.53
2022-12-29T21:35:30.649Z,15.90
2022-12-29T21:37:57.790Z,15.67
2022-12-29T21:40:24.991Z,12.93
2022-12-29T21:42:52.162Z,13.33
2022-12-29T21:45:25.456Z,16.27
2022-12-29T21:48:16.841Z,13.43
2022-12-29T21:51:04.025Z,14.27
2022-12-29T21:53:38.695Z,16.20
2022-12-29T21:56:08.941Z,15.63
2022-12-29T21:58:55.533Z,18.93
2022-12-29T22:01:42.258Z,17.93
2022-12-29T22:04:30.515Z,16.67
2022-12-29T22:07:16.553Z,14.73
2022-12-29T22:10:02.615Z,19.93
2022-12-29T22:12:51.683Z,15.80
2022-12-29T22:15:18.922Z,19.43
2022-12-29T22:17:50.251Z,19.17
2022-12-29T22:20:18.356Z,20.53
2022-12-29T22:22:45.648Z,21.07
2022-12-29T22:25:12.855Z,26.80
2022-12-29T22:27:40.165Z,22.90
2022-12-29T22:30:08.156Z,21.87
2022-12-29T22:32:35.387Z,17.83
2022-12-29T22:35:07.726Z,20.53
2022-12-29T22:37:35.938Z,25.73
2022-12-29T22:40:03.180Z,25.33
2022-12-29T22:42:30.356Z,23.60
2022-12-29T22:44:57.491Z,15.50
2022-12-29T22:47:24.643Z,25.80
2022-12-29T22:49:51.839Z,21.83
2022-12-29T22:52:19.261Z,21.90
2022-12-29T22:54:46.396Z,21.50
2022-12-29T22:57:13.603Z,26.20
2022-12-29T22:59:40.773Z,23.53
2022-12-29T23:02:08.132Z,20.83
2022-12-29T23:05:05.848Z,22.13
2022-12-29T23:07:24.163Z,19.93
2022-12-29T23:09:51.351Z,17.27
2022-12-29T23:12:18.507Z,24.47
2022-12-29T23:14:45.618Z,19.97
2022-12-29T23:17:12.783Z,18.57
2022-12-29T23:19:39.912Z,18.37
2022-12-29T23:22:07.040Z,21.00
2022-12-29T23:24:34.173Z,18.63
2022-12-29T23:27:01.472Z,21.47
2022-12-29T23:29:28.669Z,22.97
2022-12-29T23:31:55.876Z,21.23
2022-12-29T23:34:23.136Z,19.63
2022-12-29T23:36:51.046Z,19.20
2022-12-29T23:39:20.162Z,17.10
2022-12-29T23:41:47.489Z,16.87
2022-12-29T23:44:14.712Z,19.47
2022-12-29T23:46:42.081Z,22.50
2022-12-29T23:49:10.246Z,25.17
2022-12-29T23:51:37.395Z,19.37
2022-12-29T23:54:04.809Z,16.37
2022-12-29T23:56:32.451Z,19.30
2022-12-29T23:58:59.592Z,18.80
